createdAt,value
2023-01-13T00:02:24.580Z,3.47
2023-01-13T00:04:55.221Z,3.55
2023-01-13T00:07:25.721Z,3.57
2023-01-13T00:09:56.464Z,3.52
2023-01-13T00:12:26.918Z,3.54
2023-01-13T00:14:57.505Z,3.6
2023-01-13T00:17:28.081Z,3.5
2023-01-13T00:19:58.771Z,3.49
2023-01-13T00:22:29.257Z,3.5
2023-01-13T00:24:59.866Z,3.42
2023-01-13T00:27:30.457Z,3.53
2023-01-13T00:30:01.039Z,3.38
2023-01-13T00:32:31.619Z,3.63
2023-01-13T00:35:02.256Z,3.44
2023-01-13T00:37:32.809Z,3.49
2023-01-13T00:40:03.394Z,3.45
2023-01-13T00:42:33.982Z,3.36
2023-01-13T00:45:04.572Z,3.46
2023-01-13T00:47:35.147Z,3.43
2023-01-13T00:50:05.821Z,3.39
2023-01-13T00:52:36.354Z,3.22
2023-01-13T00:55:06.990Z,3.23
2023-01-13T00:57:37.536Z,3.27
2023-01-13T01:00:08.267Z,3.22
2023-01-13T01:02:38.826Z,3.18
2023-01-13T01:05:09.358Z,3.19
2023-01-13T01:07:39.929Z,3.16
2023-01-13T01:10:10.549Z,3.09
2023-01-13T01:12:41.128Z,3.14
2023-01-13T01:15:11.777Z,3.21
2023-01-13T01:17:42.348Z,3.21
2023-01-13T01:20:12.992Z,3.21
2023-01-13T01:22:43.555Z,3.27
2023-01-13T01:25:14.183Z,3.17
2023-01-13T01:27:44.487Z,3.28
2023-01-13T01:30:15.256Z,3.33
2023-01-13T01:32:45.707Z,3.43
2023-01-13T01:35:16.389Z,3.45
2023-01-13T01:37:46.659Z,3.58
2023-01-13T01:40:17.273Z,3.31
2023-01-13T01:42:47.866Z,3.74
2023-01-13T01:45:18.138Z,3.75
2023-01-13T01:47:48.711Z,3.59
2023-01-13T01:50:19.355Z,3.35
2023-01-13T01:52:49.925Z,3.27
2023-01-13T01:55:20.580Z,3.27
2023-01-13T01:57:51.148Z,3.24
2023-01-13T02:00:21.488Z,3.46
2023-01-13T02:02:52.107Z,3.11
2023-01-13T02:05:22.742Z,3.31
2023-01-13T02:07:53.329Z,3.2
2023-01-13T02:10:23.999Z,3.12
2023-01-13T02:12:54.575Z,3.11
2023-01-13T02:15:25.213Z,3.43
2023-01-13T02:17:55.839Z,3.23
2023-01-13T02:20:26.464Z,3.3
2023-01-13T02:22:56.780Z,3.25
2023-01-13T02:25:27.424Z,3.32
2023-01-13T02:27:58.124Z,3.38
2023-01-13T02:30:28.789Z,3.12
2023-01-13T02:32:59.280Z,3.19
2023-01-13T02:35:29.908Z,3.33
2023-01-13T02:38:00.567Z,3.31
2023-01-13T02:40:31.214Z,3.28
2023-01-13T02:43:01.798Z,3.28
2023-01-13T02:45:32.488Z,3.46
2023-01-13T02:48:03.086Z,3.26
2023-01-13T02:50:33.350Z,3.44
2023-01-13T02:53:03.690Z,3.55
2023-01-13T02:55:34.386Z,3.46
2023-01-13T02:58:04.703Z,3.45
2023-01-13T03:00:35.244Z,3.57
2023-01-13T03:03:05.873Z,3.42
2023-01-13T03:05:36.564Z,3.22
2023-01-13T03:08:07.172Z,3.32
2023-01-13T03:10:37.880Z,3.43
2023-01-13T03:13:08.481Z,3.35
2023-01-13T03:15:39.132Z,3.36
2023-01-13T03:18:09.784Z,3.31
2023-01-13T03:20:40.431Z,3.43
2023-01-13T03:23:11.202Z,3.25
2023-01-13T03:25:41.129Z,3.57
2023-01-13T03:28:11.747Z,3.24
2023-01-13T03:30:42.417Z,3.26
2023-01-13T03:33:12.996Z,3.2
2023-01-13T03:35:43.661Z,3.43
2023-01-13T03:38:14.291Z,3.86
2023-01-13T03:40:44.979Z,3.43
2023-01-13T03:43:15.592Z,3.42
2023-01-13T03:45:46.304Z,3.32
2023-01-13T03:48:16.907Z,3.48
2023-01-13T03:50:47.625Z,3.69
2023-01-13T03:53:18.228Z,3.63
2023-01-13T03:55:48.910Z,3.47
2023-01-13T03:58:19.594Z,3.31
2023-01-13T04:00:50.143Z,3.38
2023-01-13T04:03:20.493Z,3.53
2023-01-13T04:05:51.146Z,3.57
2023-01-13T04:08:21.744Z,3.53
2023-01-13T04:10:52.387Z,3.52
2023-01-13T04:13:22.993Z,3.65
2023-01-13T04:15:53.697Z,3.55
2023-01-13T04:18:24.269Z,3.39
2023-01-13T04:20:54.902Z,3.41
2023-01-13T04:23:25.510Z,3.6
2023-01-13T04:25:55.913Z,3.74
2023-01-13T04:28:26.480Z,3.62
2023-01-13T04:30:57.449Z,3.46
2023-01-13T04:33:27.937Z,3.65
2023-01-13T04:35:58.575Z,3.68
2023-01-13T04:38:29.181Z,3.42
2023-01-13T04:40:59.569Z,3.53
2023-01-13T04:43:29.884Z,3.52
2023-01-13T04:46:00.591Z,3.63
2023-01-13T04:48:31.151Z,3.52
2023-01-13T04:51:01.826Z,3.43
2023-01-13T04:53:32.446Z,3.29
2023-01-13T04:56:03.146Z,3.49
2023-01-13T04:58:33.728Z,3.46
2023-01-13T05:01:04.401Z,3.41
2023-01-13T05:03:35.005Z,3.49
2023-01-13T05:06:05.677Z,3.42
2023-01-13T05:08:36.291Z,3.26
2023-01-13T05:11:06.623Z,3.35
2023-01-13T05:13:37.237Z,3.42
2023-01-13T05:16:10.533Z,3.26
2023-01-13T05:18:38.533Z,3.52
2023-01-13T05:21:09.210Z,3.39
2023-01-13T05:23:39.838Z,3.62
2023-01-13T05:26:10.527Z,3.36
2023-01-13T05:28:41.116Z,3.57
2023-01-13T05:31:11.874Z,3.48
2023-01-13T05:33:42.393Z,3.38
2023-01-13T05:36:12.760Z,3.75
2023-01-13T05:38:43.392Z,3.51
2023-01-13T05:41:14.279Z,3.55
2023-01-13T05:43:44.375Z,3.22
2023-01-13T05:46:14.881Z,3.01
2023-01-13T05:48:45.293Z,3.32
2023-01-13T05:51:15.722Z,3.14
2023-01-13T05:53:46.313Z,3.23
2023-01-13T05:56:16.991Z,3.48
2023-01-13T05:58:48.061Z,3.28
2023-01-13T06:01:18.010Z,3.47
2023-01-13T06:03:48.609Z,2.93
2023-01-13T06:06:19.277Z,3.25
2023-01-13T06:08:49.916Z,3.46
2023-01-13T06:11:20.247Z,3.38
2023-01-13T06:13:50.882Z,3.16
2023-01-13T06:16:21.598Z,3.55
2023-01-13T06:18:52.166Z,3.5
2023-01-13T06:21:22.833Z,3.34
2023-01-13T06:23:53.473Z,3.5
2023-01-13T06:26:24.242Z,3.21
2023-01-13T06:28:54.781Z,3.1
2023-01-13T06:31:25.546Z,3.33
2023-01-13T06:33:56.087Z,3.04
2023-01-13T06:36:26.763Z,3.52
2023-01-13T06:38:57.413Z,3.26
2023-01-13T06:41:28.018Z,3.29
2023-01-13T06:43:58.651Z,3.45
2023-01-13T06:46:29.494Z,3.25
2023-01-13T06:48:59.917Z,3.37
2023-01-13T06:51:30.566Z,3.23
2023-01-13T06:54:01.182Z,3.32
2023-01-13T06:56:31.849Z,3.08
2023-01-13T06:59:02.262Z,3.06
2023-01-13T07:01:33.004Z,2.95
2023-01-13T07:04:03.451Z,3.21
2023-01-13T07:06:34.096Z,2.99
2023-01-13T07:09:06.759Z,3.12
2023-01-13T07:11:35.392Z,3.41
2023-01-13T07:14:06.057Z,3.18
2023-01-13T07:16:36.694Z,2.98
2023-01-13T07:19:07.285Z,3.12
2023-01-13T07:21:37.935Z,3.42
2023-01-13T07:24:08.681Z,3.19
2023-01-13T07:26:39.234Z,3.07
2023-01-13T07:29:09.850Z,3
2023-01-13T07:31:40.567Z,3.13
2023-01-13T07:34:11.118Z,3.16
2023-01-13T07:36:41.768Z,3.22
2023-01-13T07:39:12.395Z,3.27
2023-01-13T07:41:43.054Z,3.28
2023-01-13T07:44:13.662Z,3.22
2023-01-13T07:46:44.310Z,3.03
2023-01-13T07:49:14.927Z,3.12
2023-01-13T07:51:45.556Z,2.95
2023-01-13T07:54:16.181Z,3.25
2023-01-13T07:56:46.904Z,3.23
2023-01-13T07:59:17.434Z,3.3
2023-01-13T08:01:48.183Z,3.13
2023-01-13T08:04:18.681Z,3.13
2023-01-13T08:06:49.316Z,3.35
2023-01-13T08:09:19.953Z,3.14
2023-01-13T08:11:50.588Z,3.44
2023-01-13T08:14:21.184Z,3.2
2023-01-13T08:16:51.920Z,3.09
2023-01-13T08:19:22.438Z,3.01
2023-01-13T08:21:53.104Z,2.94
2023-01-13T08:24:23.717Z,3.01
2023-01-13T08:26:54.346Z,3.2
2023-01-13T08:29:24.970Z,3
2023-01-13T08:31:55.636Z,3.1
2023-01-13T08:34:26.267Z,3.09
2023-01-13T08:36:56.920Z,3.2
2023-01-13T08:39:27.524Z,3.27
2023-01-13T08:41:58.201Z,3.13
2023-01-13T08:44:28.832Z,3.5
2023-01-13T08:46:59.475Z,3.28
2023-01-13T08:49:30.084Z,3.47
2023-01-13T08:52:00.726Z,3.45
2023-01-13T08:54:31.320Z,3.82
2023-01-13T08:57:02.056Z,3.22
2023-01-13T08:59:32.558Z,3.3
2023-01-13T09:02:03.392Z,3.39
2023-01-13T09:04:33.837Z,3.35
2023-01-13T09:07:04.411Z,3.23
2023-01-13T09:09:34.832Z,3.3
2023-01-13T09:12:05.044Z,3.36
2023-01-13T09:14:35.632Z,3.36
2023-01-13T09:17:06.291Z,3.21
2023-01-13T09:19:36.617Z,3.08
2023-01-13T09:22:07.438Z,3.19
2023-01-13T09:24:37.567Z,3.25
2023-01-13T09:27:08.208Z,3.48
2023-01-13T09:29:38.809Z,3.07
2023-01-13T09:32:09.664Z,3.16
2023-01-13T09:34:40.273Z,3.28
2023-01-13T09:37:10.899Z,3.37
2023-01-13T09:39:41.500Z,3.24
2023-01-13T09:42:12.157Z,3.28
2023-01-13T09:44:42.784Z,3.41
2023-01-13T09:47:14.230Z,3.25
2023-01-13T09:49:44.011Z,3.14
2023-01-13T09:52:14.691Z,3.15
2023-01-13T09:54:45.280Z,3.48
2023-01-13T09:57:15.953Z,3.13
2023-01-13T09:59:46.546Z,3.21
2023-01-13T10:02:17.193Z,3.24
2023-01-13T10:04:47.917Z,3.29
2023-01-13T10:07:18.899Z,3.19
2023-01-13T10:09:49.067Z,3.06
2023-01-13T10:12:19.720Z,3.53
2023-01-13T10:14:50.311Z,3.48
2023-01-13T10:17:20.956Z,3.42
2023-01-13T10:19:51.546Z,3.22
2023-01-13T10:22:21.939Z,3.25
2023-01-13T10:24:52.717Z,3.27
2023-01-13T10:27:23.040Z,3.15
2023-01-13T10:29:53.487Z,3.21
2023-01-13T10:32:23.785Z,3.04
2023-01-13T10:34:54.446Z,3.13
2023-01-13T10:37:25.017Z,3.39
2023-01-13T10:39:55.621Z,3.28
2023-01-13T10:42:26.284Z,3.27
2023-01-13T10:44:56.981Z,3.19
2023-01-13T10:47:27.527Z,3.29
2023-01-13T10:49:58.117Z,3.45
2023-01-13T10:52:28.847Z,3.16
2023-01-13T10:54:59.369Z,3.36
2023-01-13T10:57:30.013Z,3.42
2023-01-13T11:00:00.596Z,3.22
2023-01-13T11:02:31.311Z,3.2
2023-01-13T11:05:01.530Z,3.47
2023-01-13T11:07:32.221Z,3.19
2023-01-13T11:10:02.793Z,3.03
2023-01-13T11:12:33.430Z,3.1
2023-01-13T11:15:04.110Z,2.96
2023-01-13T11:17:34.666Z,3.18
2023-01-13T11:20:05.279Z,3.17
2023-01-13T11:22:36.028Z,3.34
2023-01-13T11:25:06.207Z,3.3
2023-01-13T11:27:36.869Z,3.32
2023-01-13T11:30:07.439Z,3.33
2023-01-13T11:32:38.090Z,3.3
2023-01-13T11:35:08.678Z,3.64
2023-01-13T11:37:39.308Z,3.29
2023-01-13T11:40:09.907Z,3.31
2023-01-13T11:42:40.561Z,3.32
2023-01-13T11:45:11.143Z,3.14
2023-01-13T11:47:41.825Z,3.4
2023-01-13T11:50:12.420Z,3.18
2023-01-13T11:52:43.030Z,3.2
2023-01-13T11:55:13.608Z,3.22
2023-01-13T11:57:44.275Z,3.13
2023-01-13T12:00:14.877Z,3.48
2023-01-13T12:02:45.477Z,3.11
2023-01-13T12:05:16.077Z,3.47
2023-01-13T12:07:46.709Z,3.5
2023-01-13T12:10:17.279Z,3.19
2023-01-13T12:12:47.923Z,3.29
2023-01-13T12:15:18.509Z,3.37
2023-01-13T12:17:49.125Z,3.22
2023-01-13T12:20:19.739Z,3.27
2023-01-13T12:22:50.372Z,3.17
2023-01-13T12:25:21.002Z,3.2
2023-01-13T12:27:51.626Z,3.25
2023-01-13T12:30:22.278Z,3.27
2023-01-13T12:32:52.875Z,3.27
2023-01-13T12:35:23.417Z,3.23
2023-01-13T12:37:54.180Z,3.29
2023-01-13T12:40:24.655Z,3.25
2023-01-13T12:42:55.445Z,3.32
2023-01-13T12:45:25.924Z,3.4
2023-01-13T12:47:56.527Z,3.35
2023-01-13T12:50:27.126Z,3.1
2023-01-13T12:52:57.744Z,3.33
2023-01-13T12:55:28.344Z,3.38
2023-01-13T12:57:59.008Z,3.32
2023-01-13T13:00:29.587Z,3.49
2023-01-13T13:02:59.907Z,3.41
2023-01-13T13:05:30.456Z,3.21
2023-01-13T13:08:01.092Z,3.23
2023-01-13T13:10:31.701Z,3.27
2023-01-13T13:13:02.093Z,3.22
2023-01-13T13:15:32.699Z,3.2
2023-01-13T13:18:03.285Z,3.5
2023-01-13T13:20:33.874Z,3.58
2023-01-13T13:23:04.505Z,3.4
2023-01-13T13:25:35.168Z,3.47
2023-01-13T13:28:05.747Z,3.51
2023-01-13T13:30:36.136Z,3.67
2023-01-13T13:33:06.658Z,3.46
2023-01-13T13:35:37.251Z,3.66
2023-01-13T13:38:07.909Z,3.5
2023-01-13T13:40:38.478Z,3.45
2023-01-13T13:43:09.288Z,3.41
2023-01-13T13:45:40.278Z,3.48
2023-01-13T13:48:10.365Z,3.43
2023-01-13T13:50:40.480Z,3.54
2023-01-13T13:53:11.269Z,3.63
2023-01-13T13:55:41.938Z,3.48
2023-01-13T13:58:12.570Z,3.73
2023-01-13T14:00:43.116Z,3.45
2023-01-13T14:03:13.838Z,3.53
2023-01-13T14:05:44.448Z,3.4
2023-01-13T14:08:14.735Z,3.53
2023-01-13T14:10:45.496Z,3.57
2023-01-13T14:13:15.941Z,3.66
2023-01-13T14:15:46.568Z,3.81
2023-01-13T14:18:17.109Z,3.55
2023-01-13T14:20:47.722Z,3.61
2023-01-13T14:23:18.353Z,3.83
2023-01-13T14:25:48.930Z,3.83
2023-01-13T14:28:19.588Z,3.56
2023-01-13T14:30:50.235Z,3.64
2023-01-13T14:33:20.773Z,3.74
2023-01-13T14:35:51.351Z,3.66
2023-01-13T14:38:21.964Z,3.47
2023-01-13T14:40:52.562Z,3.74
2023-01-13T14:43:23.251Z,3.67
2023-01-13T14:45:53.783Z,3.59
2023-01-13T14:48:24.453Z,3.74
2023-01-13T14:50:54.985Z,3.52
2023-01-13T14:53:25.608Z,3.63
2023-01-13T14:55:56.202Z,3.65
2023-01-13T14:58:26.856Z,3.68
2023-01-13T15:00:57.489Z,3.64
2023-01-13T15:03:28.044Z,3.62
2023-01-13T15:05:58.640Z,3.53
2023-01-13T15:08:29.355Z,3.63
2023-01-13T15:11:00.084Z,3.28
2023-01-13T15:13:30.626Z,3.33
2023-01-13T15:16:01.139Z,2.96
2023-01-13T15:18:31.936Z,3.17
2023-01-13T15:21:02.028Z,3.04
2023-01-13T15:23:32.708Z,3.08
2023-01-13T15:26:03.243Z,2.87
2023-01-13T15:28:33.533Z,3.05
2023-01-13T15:31:04.208Z,3
2023-01-13T15:33:34.752Z,3.03
2023-01-13T15:36:05.311Z,3.03
2023-01-13T15:38:35.948Z,2.97
2023-01-13T15:41:06.534Z,2.89
2023-01-13T15:43:37.249Z,2.87
2023-01-13T15:46:07.785Z,2.85
2023-01-13T15:48:38.109Z,2.91
2023-01-13T15:51:08.664Z,2.76
2023-01-13T15:53:39.411Z,2.81
2023-01-13T15:56:10.027Z,2.91
2023-01-13T15:58:40.505Z,2.85
2023-01-13T16:01:11.322Z,2.81
2023-01-13T16:03:41.508Z,2.85
2023-01-13T16:06:12.102Z,2.69
2023-01-13T16:08:42.683Z,2.81
2023-01-13T16:11:12.921Z,2.79
2023-01-13T16:13:43.284Z,2.81
2023-01-13T16:16:13.900Z,2.73
2023-01-13T16:18:44.470Z,2.77
2023-01-13T16:21:15.074Z,2.7
2023-01-13T16:23:45.705Z,2.77
2023-01-13T16:26:15.999Z,2.71
2023-01-13T16:28:46.746Z,2.71
2023-01-13T16:31:17.283Z,2.69
2023-01-13T16:33:47.860Z,2.7
2023-01-13T16:36:18.465Z,2.67
2023-01-13T16:38:49.119Z,2.69
2023-01-13T16:41:19.695Z,2.68
2023-01-13T16:43:50.353Z,2.71
2023-01-13T16:46:20.922Z,2.65
2023-01-13T16:48:51.709Z,2.69
2023-01-13T16:51:22.138Z,2.67
2023-01-13T16:56:28.526Z,2.74
2023-01-13T16:58:53.998Z,2.67
2023-01-13T17:01:24.683Z,2.67
2023-01-13T17:03:55.164Z,2.76
2023-01-13T17:06:25.771Z,2.75
2023-01-13T17:08:56.362Z,2.79
2023-01-13T17:11:32.099Z,2.72
2023-01-13T17:16:28.826Z,2.9
2023-01-13T17:18:58.761Z,2.77
2023-01-13T17:21:29.530Z,2.77
2023-01-13T17:23:59.955Z,2.89
2023-01-13T17:26:30.599Z,2.89
2023-01-13T17:29:01.178Z,2.94
2023-01-13T17:31:31.636Z,2.93
2023-01-13T17:34:02.034Z,2.93
2023-01-13T17:36:32.626Z,3
2023-01-13T17:39:03.220Z,2.97
2023-01-13T17:41:33.828Z,3.07
2023-01-13T17:44:04.504Z,3
2023-01-13T17:46:35.040Z,2.93
2023-01-13T17:49:05.609Z,2.9
2023-01-13T17:51:36.213Z,2.87
2023-01-13T17:54:06.809Z,2.84
2023-01-13T17:56:37.422Z,3.1
2023-01-13T17:59:10.091Z,2.96
2023-01-13T18:01:38.900Z,2.85
2023-01-13T18:04:09.340Z,2.87
2023-01-13T18:06:40.396Z,2.88
2023-01-13T18:11:41.799Z,3.03
2023-01-13T18:14:11.282Z,2.95
2023-01-13T18:16:41.934Z,2.88
2023-01-13T18:19:12.458Z,2.96
2023-01-13T18:21:43.076Z,3.11
2023-01-13T18:24:13.396Z,3.1
2023-01-13T18:26:43.987Z,3.06
2023-01-13T18:29:14.592Z,3.13
2023-01-13T18:31:45.395Z,3.26
2023-01-13T18:34:15.867Z,3.2
2023-01-13T18:36:46.507Z,3.27
2023-01-13T18:39:17.136Z,3.34
2023-01-13T18:41:47.790Z,3.36
2023-01-13T18:44:18.113Z,3.37
2023-01-13T18:46:48.762Z,3.33
2023-01-13T18:49:19.499Z,3.18
2023-01-13T18:51:50.053Z,3.13
2023-01-13T18:54:20.758Z,3.26
2023-01-13T18:56:51.332Z,3
2023-01-13T18:59:21.967Z,3.06
2023-01-13T19:01:52.745Z,3.04
2023-01-13T19:04:23.285Z,3.09
2023-01-13T19:06:53.965Z,3.07
2023-01-13T19:09:24.492Z,3.11
2023-01-13T19:11:54.990Z,3.03
2023-01-13T19:14:25.617Z,3.07
2023-01-13T19:16:56.290Z,2.95
2023-01-13T19:19:26.922Z,2.85
2023-01-13T19:21:57.578Z,2.94
2023-01-13T19:24:28.332Z,3.03
2023-01-13T19:26:59.288Z,2.93
2023-01-13T19:32:00.334Z,2.92
2023-01-13T19:34:30.845Z,3.04
2023-01-13T19:37:01.531Z,3.03
2023-01-13T19:39:32.230Z,3.12
2023-01-13T19:42:02.834Z,3.14
2023-01-13T19:44:33.472Z,3.16
2023-01-13T19:47:04.137Z,3.14
2023-01-13T19:49:34.784Z,3.11
2023-01-13T19:52:05.457Z,3.13
2023-01-13T19:54:36.107Z,3.25
2023-01-13T19:57:06.769Z,3.2
2023-01-13T19:59:37.498Z,3.13
2023-01-13T20:02:08.126Z,3.19
2023-01-13T20:04:38.716Z,3.16
2023-01-13T20:07:09.125Z,3.1
2023-01-13T20:09:39.744Z,3.04
2023-01-13T20:12:10.425Z,3.04
2023-01-13T20:14:41.164Z,3.04
2023-01-13T20:17:11.767Z,3.08
2023-01-13T20:19:42.417Z,3.1
2023-01-13T20:22:13.087Z,3.09
2023-01-13T20:24:43.803Z,3.08
2023-01-13T20:27:14.067Z,3.06
2023-01-13T20:29:44.669Z,3.1
2023-01-13T20:32:15.366Z,3.11
2023-01-13T20:34:45.988Z,3.09
2023-01-13T20:37:16.663Z,3.06
2023-01-13T20:39:47.400Z,3
2023-01-13T20:42:18.032Z,3.04
2023-01-13T20:44:48.647Z,2.98
2023-01-13T20:47:19.251Z,2.96
2023-01-13T20:49:49.870Z,3.08
2023-01-13T20:52:20.538Z,2.91
2023-01-13T20:54:51.166Z,2.9
2023-01-13T20:57:21.799Z,3
2023-01-13T20:59:52.425Z,2.97
2023-01-13T21:02:23.086Z,2.83
2023-01-13T21:04:53.711Z,2.83
2023-01-13T21:07:24.354Z,2.86
2023-01-13T21:09:55.061Z,2.85
2023-01-13T21:12:25.641Z,2.91
2023-01-13T21:14:56.351Z,2.84
2023-01-13T21:17:27.099Z,3.44
2023-01-13T21:19:57.253Z,2.94
2023-01-13T21:22:27.902Z,3.01
2023-01-13T21:24:58.518Z,3.05
2023-01-13T21:27:29.178Z,3.22
2023-01-13T21:29:59.799Z,3.22
2023-01-13T21:32:30.481Z,3.06
2023-01-13T21:35:01.081Z,3.02
2023-01-13T21:37:31.748Z,2.98
2023-01-13T21:40:02.467Z,3.05
2023-01-13T21:42:33.046Z,3.22
2023-01-13T21:45:03.719Z,3.25
2023-01-13T21:47:34.394Z,3.28
2023-01-13T21:50:05.098Z,2.98
2023-01-13T21:52:35.670Z,3.02
2023-01-13T21:55:06.344Z,3.16
2023-01-13T21:57:36.978Z,3.04
2023-01-13T22:00:07.715Z,3.17
2023-01-13T22:02:38.405Z,3.04
2023-01-13T22:05:08.984Z,3.09
2023-01-13T22:07:39.590Z,2.91
2023-01-13T22:10:10.368Z,2.94
2023-01-13T22:12:40.910Z,2.98
2023-01-13T22:15:11.607Z,3.01
2023-01-13T22:17:42.202Z,3.02
2023-01-13T22:20:12.805Z,3.12
2023-01-13T22:22:43.446Z,3.11
2023-01-13T22:25:14.140Z,3.06
2023-01-13T22:27:44.811Z,3.06
2023-01-13T22:30:15.366Z,3.11
2023-01-13T22:32:45.772Z,3.21
2023-01-13T22:35:16.377Z,3.03
2023-01-13T22:37:47.031Z,3.04
2023-01-13T22:40:17.663Z,3.03
2023-01-13T22:42:48.357Z,3.06
2023-01-13T22:45:18.964Z,3.16
2023-01-13T22:47:49.668Z,3.27
2023-01-13T22:50:20.349Z,3.09
2023-01-13T22:52:50.923Z,3.14
2023-01-13T22:55:21.594Z,3.22
2023-01-13T22:57:52.210Z,3.32
2023-01-13T23:00:22.983Z,3.04
2023-01-13T23:02:53.538Z,3.13
2023-01-13T23:05:24.151Z,3.05
2023-01-13T23:07:54.870Z,3.05
2023-01-13T23:10:25.448Z,3.17
2023-01-13T23:12:56.139Z,3.17
2023-01-13T23:15:26.744Z,3.17
2023-01-13T23:17:57.436Z,3.11
2023-01-13T23:20:28.055Z,3.08
2023-01-13T23:22:58.768Z,3.14
2023-01-13T23:25:29.372Z,3.19
2023-01-13T23:28:00.139Z,3.13
2023-01-13T23:30:30.684Z,3.13
2023-01-13T23:33:01.385Z,3.14
2023-01-13T23:35:32.027Z,3.16
2023-01-13T23:38:02.649Z,3.13
2023-01-13T23:40:33.293Z,3.35
2023-01-13T23:43:03.967Z,3.19
2023-01-13T23:45:34.604Z,3.13
2023-01-13T23:48:05.317Z,3.22
2023-01-13T23:50:35.911Z,3.12
2023-01-13T23:53:06.667Z,3.31
2023-01-13T23:55:37.226Z,3.23
2023-01-13T23:58:07.873Z,3.3
